createdAt,value
2022-09-05T00:14:18.204Z,15.59
2022-09-05T00:34:18.133Z,15.66
2022-09-05T00:54:18.151Z,15.45
2022-09-05T01:14:18.070Z,15.32
2022-09-05T01:34:18.100Z,15.43
2022-09-05T01:54:18.022Z,15.38
2022-09-05T02:14:18.044Z,15.36
2022-09-05T02:34:17.973Z,15.28
2022-09-05T02:54:18.011Z,15.14
2022-09-05T03:14:17.921Z,15.21
2022-09-05T03:34:17.939Z,15.05
2022-09-05T03:54:17.958Z,14.77
2022-09-05T04:14:17.920Z,14.91
2022-09-05T04:34:17.949Z,14.58
2022-09-05T05:14:17.848Z,15.02
2022-09-05T05:34:17.768Z,15.04
2022-09-05T05:54:17.834Z,15.14
2022-09-05T06:14:17.757Z,15.46
2022-09-05T06:34:17.788Z,16.08
2022-09-05T06:54:17.731Z,16.55
2022-09-05T07:14:17.731Z,17.31
2022-09-05T07:34:17.658Z,17.79
2022-09-05T08:14:17.600Z,19.40
2022-09-05T08:34:17.662Z,20.82
2022-09-05T08:54:17.549Z,21.90
2022-09-05T09:14:17.577Z,22.51
2022-09-05T09:34:17.497Z,23.29
2022-09-05T09:54:17.520Z,24.21
2022-09-05T10:14:17.449Z,25.19
2022-09-05T10:34:17.377Z,25.27
2022-09-05T10:54:17.439Z,25.42
2022-09-05T11:14:17.330Z,25.31
2022-09-05T11:34:17.357Z,25.80
2022-09-05T11:54:17.287Z,25.76
2022-09-05T12:14:17.332Z,26.19
2022-09-05T12:34:17.210Z,25.99
2022-09-05T12:54:17.246Z,26.10
2022-09-05T13:14:17.177Z,26.33
2022-09-05T13:34:17.117Z,26.57
2022-09-05T13:54:17.144Z,26.19
2022-09-05T14:14:17.081Z,26.03
2022-09-05T14:34:17.021Z,25.38
2022-09-05T14:54:17.054Z,25.07
2022-09-05T15:14:17.012Z,25.30
2022-09-05T15:34:16.939Z,25.58
2022-09-05T15:54:16.993Z,25.41
2022-09-05T16:14:16.937Z,25.00
2022-09-05T16:34:16.946Z,24.57
2022-09-05T16:54:16.810Z,24.07
2022-09-05T17:14:16.846Z,23.31
2022-09-05T17:34:16.807Z,22.47
2022-09-05T17:54:16.749Z,21.65
2022-09-05T18:14:16.879Z,20.70
2022-09-05T18:34:16.780Z,20.08
2022-09-05T18:54:16.751Z,19.60
2022-09-05T19:14:16.690Z,19.21
2022-09-05T19:34:16.626Z,18.91
2022-09-05T19:54:16.561Z,18.60
2022-09-05T20:14:16.594Z,18.38
2022-09-05T20:34:16.529Z,18.01
2022-09-05T20:54:16.559Z,17.97
2022-09-05T21:14:16.494Z,17.64
2022-09-05T21:34:16.518Z,17.42
2022-09-05T21:54:16.452Z,17.26
2022-09-05T22:14:16.379Z,17.16
2022-09-05T22:34:16.412Z,17.14
2022-09-05T22:54:16.338Z,17.08
2022-09-05T23:14:16.362Z,16.89
2022-09-05T23:34:16.291Z,16.86
2022-09-05T23:54:16.321Z,16.76
